Skardu Weather



Skardu's Current Weather

Temprature 12.61o overcast clouds

overcast clouds

Rain: 0 %

Min Temprature12.61o
Max Temprature12.61o
Humidity79
Wind Speed1.79 m/h
Sun Rise04:44:23
Sun Set19:06:23
Current Time: 01-Jun-2023 03:23:32
Lat/Lon: 35.2885, 75.6333




Skardu's Geo Location



Skardu's Weather Forecast

Time Overall Temp Min Temp Max Temp Humidity Wind Speed Rain
01-Jun-2023 (Thu)
05:00:00 light rain 12.460 11.550 12.460 81 1.6 m/h 113 %
08:00:00 light rain 12.730 12.630 12.730 80 0.46 m/h 81 %
11:00:00 light rain 16.220 16.220 16.220 62 1.64 m/h 12 %
14:00:00 light rain 18.390 18.390 18.390 45 3.51 m/h 27 %
17:00:00 light rain 17.640 17.640 17.640 46 3.68 m/h 20 %
20:00:00 light rain 14.890 14.890 14.890 59 3.24 m/h 19 %
23:00:00 light rain 13.840 13.840 13.840 63 2.32 m/h 35 %
02-Jun-2023 (Fri)
02:00:00 light rain 12.480 12.480 12.480 66 2.52 m/h 20 %
05:00:00 overcast clouds 12.440 12.440 12.440 67 1.29 m/h 0 %
08:00:00 overcast clouds 13.480 13.480 13.480 64 0.51 m/h 0 %
11:00:00 light rain 16.730 16.730 16.730 47 0.89 m/h 17 %
14:00:00 light rain 18.860 18.860 18.860 37 2.83 m/h 14 %
17:00:00 light rain 17.510 17.510 17.510 50 2.35 m/h 37 %
20:00:00 light rain 14.930 14.930 14.930 65 1.81 m/h 34 %
23:00:00 light rain 13.040 13.040 13.040 77 2.07 m/h 191 %
03-Jun-2023 (Sat)
02:00:00 light rain 11.260 11.260 11.260 89 1.91 m/h 87 %
05:00:00 light rain 10.640 10.640 10.640 95 1.73 m/h 144 %
08:00:00 light rain 10.950 10.950 10.950 94 1.12 m/h 138 %
11:00:00 light rain 14.350 14.350 14.350 67 1.84 m/h 42 %
14:00:00 light rain 17.500 17.500 17.500 48 2.17 m/h 49 %
17:00:00 light rain 18.530 18.530 18.530 43 1.81 m/h 19 %
20:00:00 broken clouds 16.860 16.860 16.860 48 1.26 m/h 0 %
23:00:00 scattered clouds 15.250 15.250 15.250 54 1.46 m/h 0 %
04-Jun-2023 (Sun)
02:00:00 broken clouds 14.050 14.050 14.050 57 1.16 m/h 0 %
05:00:00 overcast clouds 13.030 13.030 13.030 59 0.78 m/h 0 %
08:00:00 light rain 15.140 15.140 15.140 49 0.87 m/h 10 %
11:00:00 light rain 16.770 16.770 16.770 46 0.38 m/h 23 %
14:00:00 light rain 17.960 17.960 17.960 48 2.56 m/h 16 %
17:00:00 light rain 13.820 13.820 13.820 77 2.57 m/h 181 %
20:00:00 light rain 12.840 12.840 12.840 83 1.99 m/h 12 %
23:00:00 light rain 12.060 12.060 12.060 86 1.27 m/h 65 %
05-Jun-2023 (Mon)
02:00:00 light rain 11.360 11.360 11.360 94 1.19 m/h 147 %
05:00:00 light rain 10.910 10.910 10.910 90 0.88 m/h 48 %
08:00:00 light rain 12.460 12.460 12.460 80 1.21 m/h 10 %
11:00:00 light rain 15.590 15.590 15.590 57 1.52 m/h 69 %
14:00:00 light rain 17.590 17.590 17.590 48 0.81 m/h 125 %
17:00:00 light rain 16.300 16.300 16.300 58 1.78 m/h 134 %
20:00:00 light rain 14.750 14.750 14.750 66 1.72 m/h 51 %
23:00:00 light rain 13.940 13.940 13.940 69 1.21 m/h 23 %
06-Jun-2023 (Tue)
02:00:00 light rain 13.460 13.460 13.460 68 1.31 m/h 30 %

Famous Cities (61)